createdAt,value
2023-02-02T00:01:28.749Z,5.25
2023-02-02T00:03:57.640Z,5.37
2023-02-02T00:06:26.805Z,5.53
2023-02-02T00:08:56.772Z,5.75
2023-02-02T00:11:25.464Z,5.08
2023-02-02T00:13:54.007Z,5.37
2023-02-02T00:16:29.732Z,5.35
2023-02-02T00:18:59.520Z,5.50
2023-02-02T00:21:28.121Z,4.87
2023-02-02T00:23:56.481Z,5.95
2023-02-02T00:26:25.029Z,4.53
2023-02-02T00:28:53.210Z,5.05
2023-02-02T00:31:21.537Z,5.47
2023-02-02T00:33:50.593Z,5.10
2023-02-02T00:36:19.226Z,5.60
2023-02-02T00:38:48.177Z,4.87
2023-02-02T00:41:16.761Z,4.28
2023-02-02T00:43:46.511Z,5.22
2023-02-02T00:46:16.258Z,5.22
2023-02-02T00:48:44.481Z,5.35
2023-02-02T00:51:12.698Z,4.92
2023-02-02T00:53:40.924Z,5.83
2023-02-02T00:56:09.154Z,4.97
2023-02-02T00:58:37.377Z,4.92
2023-02-02T01:01:05.632Z,4.35
2023-02-02T01:03:33.979Z,4.50
2023-02-02T01:06:02.203Z,4.58
2023-02-02T01:08:30.399Z,5.65
2023-02-02T01:10:59.994Z,5.08
2023-02-02T01:13:28.213Z,4.75
2023-02-02T01:15:57.001Z,5.45
2023-02-02T01:18:25.789Z,4.40
2023-02-02T01:21:00.831Z,4.55
2023-02-02T01:23:29.213Z,5.03
2023-02-02T01:25:58.310Z,5.42
2023-02-02T01:28:27.571Z,5.53
2023-02-02T01:30:56.009Z,5.25
2023-02-02T01:33:24.575Z,6.10
2023-02-02T01:35:53.862Z,6.50
2023-02-02T01:38:22.851Z,5.90
2023-02-02T01:40:52.924Z,6.33
2023-02-02T01:43:22.999Z,5.97
2023-02-02T01:45:55.239Z,6.53
2023-02-02T01:48:30.668Z,6.30
2023-02-02T01:51:00.425Z,6.92
2023-02-02T01:53:29.301Z,6.62
2023-02-02T01:55:57.656Z,6.60
2023-02-02T01:58:33.056Z,4.95
2023-02-02T02:01:01.642Z,5.70
2023-02-02T02:03:31.702Z,5.40
2023-02-02T02:06:01.513Z,7.20
2023-02-02T02:08:31.341Z,5.70
2023-02-02T02:10:59.618Z,5.22
2023-02-02T02:13:46.845Z,5.05
2023-02-02T02:16:19.190Z,5.37
2023-02-02T02:18:57.578Z,5.00
2023-02-02T02:21:44.826Z,4.70
2023-02-02T02:24:41.331Z,5.17
2023-02-02T02:27:13.722Z,4.75
2023-02-02T02:29:59.927Z,4.87
2023-02-02T02:32:44.451Z,6.15
2023-02-02T02:35:30.728Z,4.65
2023-02-02T02:38:06.203Z,5.22
2023-02-02T02:40:44.990Z,4.67
2023-02-02T02:43:15.395Z,4.62
2023-02-02T02:45:44.440Z,5.35
2023-02-02T02:48:12.834Z,4.97
2023-02-02T02:50:41.101Z,5.30
2023-02-02T02:53:10.900Z,4.25
2023-02-02T02:55:40.642Z,5.67
2023-02-02T02:58:10.440Z,4.37
2023-02-02T03:00:49.112Z,4.08
2023-02-02T03:03:18.869Z,5.42
2023-02-02T03:06:05.386Z,4.53
2023-02-02T03:08:35.162Z,5.67
2023-02-02T03:11:05.384Z,5.22
2023-02-02T03:13:33.983Z,6.08
2023-02-02T03:16:02.237Z,6.12
2023-02-02T03:18:31.681Z,4.83
2023-02-02T03:21:00.358Z,5.17
2023-02-02T03:23:28.646Z,4.95
2023-02-02T03:25:56.841Z,5.92
2023-02-02T03:28:25.736Z,5.03
2023-02-02T03:30:54.481Z,5.28
2023-02-02T03:33:23.095Z,5.53
2023-02-02T03:35:51.296Z,5.03
2023-02-02T03:38:19.534Z,5.20
2023-02-02T03:40:47.714Z,5.20
2023-02-02T03:43:17.469Z,4.85
2023-02-02T03:45:45.676Z,5.37
2023-02-02T03:48:13.892Z,6.08
2023-02-02T03:50:42.104Z,5.50
2023-02-02T03:53:10.331Z,5.42
2023-02-02T03:55:40.382Z,4.72
2023-02-02T03:58:08.615Z,5.12
2023-02-02T04:00:36.879Z,5.28
2023-02-02T04:03:06.412Z,4.87
2023-02-02T04:05:34.614Z,5.22
2023-02-02T04:08:02.838Z,5.70
2023-02-02T04:10:31.095Z,5.03
2023-02-02T04:12:59.295Z,5.33
2023-02-02T04:15:27.674Z,4.90
2023-02-02T04:17:55.951Z,4.72
2023-02-02T04:20:24.153Z,5.33
2023-02-02T04:22:52.383Z,5.42
2023-02-02T04:25:20.619Z,5.75
2023-02-02T04:27:49.184Z,4.40
2023-02-02T04:30:17.560Z,4.92
2023-02-02T04:32:45.931Z,4.80
2023-02-02T04:35:14.145Z,4.78
2023-02-02T04:37:42.346Z,4.37
2023-02-02T04:40:10.848Z,4.45
2023-02-02T04:42:39.055Z,5.53
2023-02-02T04:45:07.582Z,5.25
2023-02-02T04:47:35.802Z,4.83
2023-02-02T04:50:04.081Z,6.03
2023-02-02T04:52:32.363Z,4.92
2023-02-02T04:55:00.572Z,4.45
2023-02-02T04:57:28.773Z,4.90
2023-02-02T04:59:56.987Z,6.40
2023-02-02T05:02:25.279Z,5.22
2023-02-02T05:04:53.473Z,6.00
2023-02-02T05:07:21.696Z,4.97
2023-02-02T05:09:51.551Z,5.17
2023-02-02T05:12:19.771Z,5.90
2023-02-02T05:14:47.971Z,4.97
2023-02-02T05:17:16.178Z,6.00
2023-02-02T05:19:44.406Z,7.15
2023-02-02T05:22:12.677Z,5.53
2023-02-02T05:24:40.906Z,6.10
2023-02-02T05:27:09.126Z,6.17
2023-02-02T05:29:37.335Z,6.35
2023-02-02T05:32:05.721Z,5.95
2023-02-02T05:34:33.949Z,5.87
2023-02-02T05:37:02.161Z,6.10
2023-02-02T05:39:30.389Z,7.05
2023-02-02T05:41:58.680Z,5.95
2023-02-02T05:44:26.887Z,6.08
2023-02-02T05:46:55.152Z,5.58
2023-02-02T05:49:23.336Z,6.10
2023-02-02T05:51:53.084Z,6.78
2023-02-02T05:54:21.309Z,5.47
2023-02-02T05:56:50.717Z,5.53
2023-02-02T05:59:19.388Z,6.20
2023-02-02T06:01:48.282Z,6.12
2023-02-02T06:04:17.098Z,6.78
2023-02-02T06:06:46.410Z,6.80
2023-02-02T06:09:14.694Z,6.95
2023-02-02T06:11:43.990Z,6.20
2023-02-02T06:14:12.287Z,6.28
2023-02-02T06:16:40.571Z,6.80
2023-02-02T06:19:08.769Z,7.35
2023-02-02T06:21:37.007Z,6.30
2023-02-02T06:24:05.412Z,6.22
2023-02-02T06:26:33.689Z,6.72
2023-02-02T06:29:02.704Z,7.92
2023-02-02T06:31:31.190Z,7.00
2023-02-02T06:33:59.491Z,8.45
2023-02-02T06:36:28.366Z,7.35
2023-02-02T06:38:57.167Z,8.03
2023-02-02T06:41:25.432Z,7.20
2023-02-02T06:43:53.649Z,7.20
2023-02-02T06:46:21.944Z,7.25
2023-02-02T06:48:50.082Z,7.15
2023-02-02T06:51:18.318Z,6.12
2023-02-02T06:53:49.098Z,7.65
2023-02-02T06:56:17.373Z,6.72
2023-02-02T06:58:45.589Z,6.65
2023-02-02T07:01:14.521Z,6.80
2023-02-02T07:03:42.762Z,7.70
2023-02-02T07:06:14.915Z,7.85
2023-02-02T07:08:43.206Z,7.40
2023-02-02T07:11:15.843Z,6.90
2023-02-02T07:13:41.946Z,6.90
2023-02-02T07:16:10.319Z,7.67
2023-02-02T07:18:39.111Z,6.87
2023-02-02T07:21:07.710Z,7.83
2023-02-02T07:23:35.920Z,6.80
2023-02-02T07:26:05.719Z,7.55
2023-02-02T07:28:34.150Z,6.78
2023-02-02T07:31:04.001Z,7.28
2023-02-02T07:33:32.243Z,6.75
2023-02-02T07:36:02.254Z,7.92
2023-02-02T07:38:30.520Z,7.62
2023-02-02T07:41:00.280Z,7.45
2023-02-02T07:43:28.506Z,7.72
2023-02-02T07:45:59.902Z,8.83
2023-02-02T07:48:28.287Z,7.37
2023-02-02T07:50:58.008Z,9.03
2023-02-02T07:53:26.229Z,8.25
2023-02-02T07:55:54.457Z,7.72
2023-02-02T07:58:22.675Z,8.73
2023-02-02T08:00:50.997Z,8.68
2023-02-02T08:03:19.356Z,8.08
2023-02-02T08:05:47.967Z,8.48
2023-02-02T08:08:16.258Z,7.83
2023-02-02T08:10:50.847Z,9.75
2023-02-02T08:13:19.344Z,8.68
2023-02-02T08:15:47.706Z,8.95
2023-02-02T08:18:16.536Z,10.45
2023-02-02T08:20:44.748Z,8.88
2023-02-02T08:23:14.564Z,9.68
2023-02-02T08:25:43.213Z,8.70
2023-02-02T08:28:11.404Z,8.60
2023-02-02T08:30:39.866Z,10.13
2023-02-02T08:33:08.115Z,8.05
2023-02-02T08:35:37.907Z,8.65
2023-02-02T08:38:07.314Z,8.63
2023-02-02T08:40:35.564Z,9.10
2023-02-02T08:43:04.093Z,8.13
2023-02-02T08:46:03.692Z,8.65
2023-02-02T08:48:11.612Z,9.05
2023-02-02T08:50:32.731Z,7.95
2023-02-02T08:53:00.985Z,8.78
2023-02-02T08:55:29.241Z,8.53
2023-02-02T08:57:57.426Z,7.97
2023-02-02T09:00:25.799Z,8.03
2023-02-02T09:02:54.016Z,8.18
2023-02-02T09:05:22.389Z,10.00
2023-02-02T09:07:50.636Z,8.63
2023-02-02T09:10:18.987Z,7.80
2023-02-02T09:12:47.228Z,8.35
2023-02-02T09:15:15.445Z,8.33
2023-02-02T09:17:43.653Z,7.35
2023-02-02T09:20:12.314Z,7.90
2023-02-02T09:22:40.523Z,8.60
2023-02-02T09:25:08.823Z,37.15
2023-02-02T09:27:40.941Z,9.73
2023-02-02T09:30:09.564Z,8.05
2023-02-02T09:32:39.288Z,9.50
2023-02-02T09:35:07.782Z,8.30
2023-02-02T09:37:36.042Z,7.67
2023-02-02T09:40:04.308Z,8.38
2023-02-02T09:42:34.072Z,9.43
2023-02-02T09:45:03.908Z,9.10
2023-02-02T09:47:39.659Z,9.60
2023-02-02T09:50:15.345Z,8.95
2023-02-02T09:52:47.981Z,9.80
2023-02-02T09:57:48.165Z,9.95
2023-02-02T10:00:29.966Z,11.28
2023-02-02T10:02:59.817Z,9.55
2023-02-02T10:05:29.594Z,11.25
2023-02-02T10:07:59.359Z,9.45
2023-02-02T10:10:32.141Z,9.55
2023-02-02T10:13:03.809Z,9.98
2023-02-02T10:15:33.638Z,10.98
2023-02-02T10:18:06.335Z,10.48
2023-02-02T10:20:36.138Z,9.98
2023-02-02T10:23:06.364Z,10.25
2023-02-02T10:25:35.860Z,10.45
2023-02-02T10:28:05.627Z,11.70
2023-02-02T10:30:35.422Z,10.45
2023-02-02T10:33:05.430Z,10.43
2023-02-02T10:35:38.193Z,9.98
2023-02-02T10:38:19.864Z,9.45
2023-02-02T10:40:49.607Z,9.73
2023-02-02T10:43:46.394Z,8.93
2023-02-02T10:46:28.191Z,9.20
2023-02-02T10:49:14.399Z,8.08
2023-02-02T10:51:44.164Z,9.05
2023-02-02T10:54:22.744Z,8.93
2023-02-02T10:56:53.828Z,8.40
2023-02-02T10:59:32.336Z,8.13
2023-02-02T11:02:11.662Z,7.90
2023-02-02T11:04:48.247Z,8.48
2023-02-02T11:07:18.137Z,8.35
2023-02-02T11:09:46.981Z,8.15
2023-02-02T11:12:22.807Z,8.50
2023-02-02T11:14:52.652Z,8.18
2023-02-02T11:17:22.179Z,8.63
2023-02-02T11:19:51.132Z,7.53
2023-02-02T11:22:33.810Z,8.53
2023-02-02T11:25:03.573Z,7.92
2023-02-02T11:27:36.233Z,7.53
2023-02-02T11:32:33.001Z,7.70
2023-02-02T11:35:02.866Z,7.75
2023-02-02T11:37:35.565Z,7.15
2023-02-02T11:42:31.285Z,7.65
2023-02-02T11:45:00.275Z,6.70
2023-02-02T11:47:30.277Z,7.17
2023-02-02T11:49:59.693Z,7.45
2023-02-02T11:52:32.288Z,6.40
2023-02-02T11:55:01.441Z,7.65
2023-02-02T11:57:30.557Z,7.03
2023-02-02T12:00:09.239Z,6.42
2023-02-02T12:02:37.555Z,6.65
2023-02-02T12:05:16.398Z,7.55
2023-02-02T12:07:44.851Z,7.08
2023-02-02T12:10:20.556Z,6.55
2023-02-02T12:12:50.321Z,9.20
2023-02-02T12:15:20.079Z,6.28
2023-02-02T12:17:49.107Z,7.17
2023-02-02T12:20:21.616Z,7.40
2023-02-02T12:22:57.419Z,6.85
2023-02-02T12:25:42.361Z,7.35
2023-02-02T12:28:18.224Z,8.85
2023-02-02T12:30:50.662Z,7.30
2023-02-02T12:33:20.412Z,7.65
2023-02-02T12:35:52.933Z,7.78
2023-02-02T12:38:39.179Z,7.65
2023-02-02T12:41:25.121Z,6.70
2023-02-02T12:43:54.887Z,7.40
2023-02-02T12:46:36.438Z,8.40
2023-02-02T12:49:12.231Z,8.30
2023-02-02T12:51:58.489Z,8.18
2023-02-02T12:54:47.180Z,8.28
2023-02-02T12:57:08.596Z,8.60
2023-02-02T12:59:53.154Z,8.65
2023-02-02T13:02:39.153Z,8.08
2023-02-02T13:05:27.031Z,9.25
2023-02-02T13:08:05.738Z,8.30
2023-02-02T13:10:44.009Z,7.92
2023-02-02T13:13:23.653Z,8.73
2023-02-02T13:15:59.456Z,8.40
2023-02-02T13:18:29.453Z,7.95
2023-02-02T13:20:59.219Z,7.80
2023-02-02T13:23:35.006Z,8.13
2023-02-02T13:26:04.957Z,8.20
2023-02-02T13:28:37.351Z,8.18
2023-02-02T13:31:07.323Z,8.35
2023-02-02T13:33:36.733Z,7.97
2023-02-02T13:36:06.447Z,9.58
2023-02-02T13:38:36.386Z,7.85
2023-02-02T13:41:06.145Z,8.00
2023-02-02T13:43:45.096Z,8.00
2023-02-02T13:46:14.934Z,7.62
2023-02-02T13:48:50.762Z,8.20
2023-02-02T13:51:26.590Z,7.70
2023-02-02T13:54:12.607Z,7.83
2023-02-02T13:56:48.268Z,6.62
2023-02-02T13:59:23.960Z,7.10
2023-02-02T14:01:53.210Z,7.55
2023-02-02T14:04:26.022Z,7.10
2023-02-02T14:06:58.906Z,6.22
2023-02-02T14:09:28.482Z,7.40
2023-02-02T14:11:58.410Z,7.35
2023-02-02T14:14:32.611Z,6.90
2023-02-02T14:17:01.983Z,7.08
2023-02-02T14:19:40.069Z,6.08
2023-02-02T14:22:14.840Z,5.97
2023-02-02T14:24:44.127Z,6.03
2023-02-02T14:27:14.000Z,6.58
2023-02-02T14:29:47.191Z,6.47
2023-02-02T14:32:28.910Z,6.53
2023-02-02T14:34:58.275Z,5.95
2023-02-02T14:37:28.045Z,6.17
2023-02-02T14:40:00.719Z,5.97
2023-02-02T14:45:18.729Z,5.70
2023-02-02T14:47:51.064Z,6.08
2023-02-02T14:50:26.549Z,5.22
2023-02-02T14:52:56.365Z,5.87
2023-02-02T14:55:25.476Z,5.45
2023-02-02T14:57:55.411Z,5.42
2023-02-02T15:00:27.939Z,5.70
2023-02-02T15:02:56.383Z,5.87
2023-02-02T15:05:33.739Z,6.20
2023-02-02T15:08:20.042Z,6.15
2023-02-02T15:10:54.287Z,6.90
2023-02-02T15:13:24.064Z,6.42
2023-02-02T15:15:53.822Z,6.45
2023-02-02T15:18:30.641Z,6.33
2023-02-02T15:21:00.640Z,6.33
2023-02-02T15:23:33.331Z,5.62
2023-02-02T15:28:30.559Z,5.90
2023-02-02T15:31:00.413Z,5.28
2023-02-02T15:33:35.035Z,5.70
2023-02-02T15:36:04.796Z,6.00
2023-02-02T15:38:34.658Z,5.53
2023-02-02T15:41:07.094Z,5.45
2023-02-02T15:43:35.530Z,5.40
2023-02-02T15:46:05.662Z,5.03
2023-02-02T15:48:35.078Z,5.67
2023-02-02T15:51:04.875Z,4.80
2023-02-02T15:53:34.818Z,4.87
2023-02-02T15:56:04.611Z,4.95
2023-02-02T15:58:34.791Z,4.55
2023-02-02T16:01:04.709Z,4.95
2023-02-02T16:03:34.568Z,4.83
2023-02-02T16:06:04.337Z,4.95
2023-02-02T16:08:34.909Z,4.58
2023-02-02T16:11:07.405Z,4.80
2023-02-02T16:13:35.815Z,5.05
2023-02-02T16:16:06.723Z,5.40
2023-02-02T16:18:36.038Z,5.20
2023-02-02T16:21:05.813Z,5.72
2023-02-02T16:23:35.413Z,5.92
2023-02-02T16:26:05.323Z,6.05
2023-02-02T16:28:33.820Z,6.50
2023-02-02T16:31:02.689Z,5.97
2023-02-02T16:33:35.762Z,6.15
2023-02-02T16:36:12.784Z,6.17
2023-02-02T16:38:39.360Z,6.60
2023-02-02T16:41:11.385Z,7.35
2023-02-02T16:43:40.888Z,7.28
2023-02-02T16:46:13.399Z,7.87
2023-02-02T16:51:19.432Z,7.85
2023-02-02T16:53:49.040Z,8.10
2023-02-02T16:56:30.538Z,8.08
2023-02-02T16:59:00.778Z,9.53
2023-02-02T17:01:36.462Z,9.83
2023-02-02T17:04:05.716Z,9.80
2023-02-02T17:06:50.443Z,10.15
2023-02-02T17:09:24.748Z,10.50
2023-02-02T17:11:57.578Z,10.43
2023-02-02T17:14:27.424Z,10.32
2023-02-02T17:16:55.788Z,10.80
2023-02-02T17:19:24.132Z,11.53
2023-02-02T17:21:52.454Z,10.60
2023-02-02T17:24:20.695Z,12.78
2023-02-02T17:26:49.045Z,11.18
2023-02-02T17:29:18.547Z,11.68
2023-02-02T17:31:46.872Z,11.25
2023-02-02T17:34:15.479Z,11.35
2023-02-02T17:36:44.154Z,11.20
2023-02-02T17:39:12.414Z,13.35
2023-02-02T17:41:40.704Z,12.13
2023-02-02T17:44:10.515Z,13.18
2023-02-02T17:46:40.236Z,13.13
2023-02-02T17:49:08.643Z,13.20
2023-02-02T17:51:38.521Z,13.32
2023-02-02T17:54:08.343Z,12.82
2023-02-02T17:56:36.622Z,14.30
2023-02-02T17:59:04.874Z,13.95
2023-02-02T18:01:33.181Z,13.60
2023-02-02T18:04:01.473Z,13.90
2023-02-02T18:06:29.855Z,14.90
2023-02-02T18:08:58.132Z,14.10
2023-02-02T18:11:26.383Z,15.15
2023-02-02T18:13:54.617Z,16.15
2023-02-02T18:16:22.973Z,14.58
2023-02-02T18:18:51.179Z,14.90
2023-02-02T18:21:19.430Z,14.60
2023-02-02T18:23:50.470Z,15.90
2023-02-02T18:26:21.948Z,15.15
2023-02-02T18:28:50.741Z,14.90
2023-02-02T18:31:19.917Z,15.75
2023-02-02T18:33:48.248Z,16.27
2023-02-02T18:36:19.714Z,14.73
2023-02-02T18:38:48.999Z,16.25
2023-02-02T18:41:17.914Z,16.15
2023-02-02T18:43:46.271Z,16.35
2023-02-02T18:46:15.177Z,15.28
2023-02-02T18:48:43.765Z,16.55
2023-02-02T18:51:15.168Z,15.75
2023-02-02T18:53:44.119Z,15.68
2023-02-02T18:56:13.088Z,15.72
2023-02-02T18:58:41.822Z,17.00
2023-02-02T19:01:15.153Z,15.15
2023-02-02T19:03:44.119Z,16.50
2023-02-02T19:06:29.909Z,16.50
2023-02-02T19:08:58.191Z,15.32
2023-02-02T19:11:28.847Z,15.28
2023-02-02T19:13:57.046Z,15.23
2023-02-02T19:16:26.506Z,14.53
2023-02-02T19:19:08.741Z,17.50
2023-02-02T19:21:36.965Z,19.37
2023-02-02T19:24:06.931Z,16.93
2023-02-02T19:26:36.862Z,16.40
2023-02-02T19:29:06.612Z,15.35
2023-02-02T19:31:35.032Z,15.72
2023-02-02T19:34:05.833Z,14.98
2023-02-02T19:36:35.599Z,14.15
2023-02-02T19:39:05.390Z,14.45
2023-02-02T19:41:33.625Z,14.80
2023-02-02T19:44:06.303Z,14.95
2023-02-02T19:49:03.850Z,13.60
2023-02-02T19:51:45.940Z,14.75
2023-02-02T19:54:18.643Z,13.65
2023-02-02T19:56:46.889Z,13.83
2023-02-02T19:59:17.418Z,13.72
2023-02-02T20:01:49.748Z,14.70
2023-02-02T20:04:19.507Z,13.35
2023-02-02T20:06:58.487Z,14.10
2023-02-02T20:09:18.902Z,13.55
2023-02-02T20:11:53.747Z,13.10
2023-02-02T20:14:25.160Z,14.03
2023-02-02T20:16:54.588Z,13.70
2023-02-02T20:19:25.033Z,12.80
2023-02-02T20:21:54.150Z,12.30
2023-02-02T20:24:26.447Z,12.80
2023-02-02T20:26:55.962Z,11.75
2023-02-02T20:29:28.274Z,11.12
2023-02-02T20:31:57.269Z,11.93
2023-02-02T20:34:26.995Z,10.75
2023-02-02T20:36:56.763Z,11.33
2023-02-02T20:39:26.638Z,10.72
2023-02-02T20:41:56.523Z,9.68
2023-02-02T20:44:25.937Z,9.25
2023-02-02T20:46:54.659Z,9.10
2023-02-02T20:49:24.960Z,9.85
2023-02-02T20:51:54.138Z,8.05
2023-02-02T20:54:22.843Z,9.78
2023-02-02T20:56:51.715Z,8.95
2023-02-02T20:59:20.041Z,9.35
2023-02-02T21:01:50.329Z,9.15
2023-02-02T21:04:18.999Z,8.48
2023-02-02T21:06:48.583Z,9.53
2023-02-02T21:09:17.280Z,9.50
2023-02-02T21:11:45.565Z,8.80
2023-02-02T21:14:13.892Z,8.75
2023-02-02T21:16:42.191Z,8.93
2023-02-02T21:19:10.519Z,9.33
2023-02-02T21:21:38.825Z,9.18
2023-02-02T21:24:07.307Z,10.43
2023-02-02T21:26:35.534Z,8.98
2023-02-02T21:29:03.957Z,9.65
2023-02-02T21:31:33.890Z,9.15
2023-02-02T21:34:02.498Z,10.72
2023-02-02T21:36:32.262Z,8.98
2023-02-02T21:39:02.008Z,8.93
2023-02-02T21:41:31.820Z,8.90
2023-02-02T21:44:00.545Z,9.23
2023-02-02T21:46:36.434Z,8.55
2023-02-02T21:49:04.978Z,8.70
2023-02-02T21:51:34.652Z,7.72
2023-02-02T21:54:04.378Z,7.85
2023-02-02T21:56:34.167Z,8.95
2023-02-02T21:59:03.925Z,7.92
2023-02-02T22:01:36.436Z,7.65
2023-02-02T22:06:36.253Z,7.60
2023-02-02T22:09:08.913Z,8.15
2023-02-02T22:14:21.528Z,7.78
2023-02-02T22:16:51.105Z,7.85
2023-02-02T22:19:23.329Z,7.53
2023-02-02T22:21:51.539Z,7.92
2023-02-02T22:24:19.840Z,7.97
2023-02-02T22:26:48.545Z,7.47
2023-02-02T22:29:18.439Z,8.50
2023-02-02T22:31:46.649Z,8.05
2023-02-02T22:34:14.909Z,7.83
2023-02-02T22:36:43.114Z,7.75
2023-02-02T22:39:11.431Z,8.83
2023-02-02T22:41:39.640Z,7.35
2023-02-02T22:44:07.869Z,8.73
2023-02-02T22:46:36.159Z,8.68
2023-02-02T22:49:04.417Z,7.50
2023-02-02T22:51:32.639Z,7.37
2023-02-02T22:54:00.842Z,7.90
2023-02-02T22:56:29.075Z,7.60
2023-02-02T22:58:57.276Z,8.08
2023-02-02T23:01:25.467Z,7.25
2023-02-02T23:03:53.764Z,8.30
2023-02-02T23:06:21.968Z,7.25
2023-02-02T23:08:50.183Z,7.85
2023-02-02T23:11:18.403Z,7.50
2023-02-02T23:13:46.603Z,8.05
2023-02-02T23:16:14.944Z,7.03
2023-02-02T23:18:43.198Z,7.25
2023-02-02T23:21:11.405Z,8.08
2023-02-02T23:23:39.603Z,8.18
2023-02-02T23:26:07.858Z,7.50
2023-02-02T23:28:36.053Z,7.90
2023-02-02T23:31:04.473Z,7.55
2023-02-02T23:33:32.759Z,8.20
2023-02-02T23:36:01.008Z,7.85
2023-02-02T23:38:29.210Z,8.23
2023-02-02T23:40:58.088Z,7.58
2023-02-02T23:43:26.482Z,6.87
2023-02-02T23:45:54.889Z,6.90
2023-02-02T23:48:23.174Z,7.30
2023-02-02T23:50:51.470Z,6.85
2023-02-02T23:53:20.046Z,7.20
2023-02-02T23:55:48.336Z,6.58
2023-02-02T23:58:16.560Z,7.37
